createdAt,value
2022-08-02T00:02:20.436Z,14.32
2022-08-02T00:04:46.691Z,13.80
2022-08-02T00:07:12.925Z,13.82
2022-08-02T00:09:39.169Z,13.94
2022-08-02T00:12:05.470Z,13.67
2022-08-02T00:14:31.724Z,13.85
2022-08-02T00:16:57.962Z,13.93
2022-08-02T00:19:24.214Z,13.98
2022-08-02T00:21:50.449Z,13.98
2022-08-02T00:24:29.492Z,14.01
2022-08-02T00:26:56.477Z,14.01
2022-08-02T00:29:22.726Z,13.97
2022-08-02T00:31:48.957Z,13.93
2022-08-02T00:34:28.703Z,13.95
2022-08-02T00:36:57.370Z,13.96
2022-08-02T00:39:35.032Z,13.88
2022-08-02T00:42:01.957Z,13.60
2022-08-02T00:44:28.208Z,13.54
2022-08-02T00:46:54.449Z,13.62
2022-08-02T00:49:21.212Z,13.40
2022-08-02T00:51:47.720Z,13.33
2022-08-02T00:54:13.952Z,13.07
2022-08-02T00:56:40.247Z,13.18
2022-08-02T00:59:16.111Z,13.34
2022-08-02T01:01:55.999Z,13.41
2022-08-02T01:04:30.399Z,13.20
2022-08-02T01:06:58.519Z,13.36
2022-08-02T01:09:24.758Z,13.48
2022-08-02T01:11:50.992Z,13.51
2022-08-02T01:14:17.217Z,13.38
2022-08-02T01:16:46.227Z,13.32
2022-08-02T01:19:20.530Z,13.39
2022-08-02T01:21:53.892Z,13.28
2022-08-02T01:24:38.242Z,12.91
2022-08-02T01:27:09.433Z,12.82
2022-08-02T01:29:37.709Z,13.07
2022-08-02T01:32:09.348Z,13.16
2022-08-02T01:34:37.093Z,12.82
2022-08-02T01:37:05.872Z,12.91
2022-08-02T01:39:32.689Z,13.00
2022-08-02T01:41:59.195Z,13.26
2022-08-02T01:44:27.679Z,13.16
2022-08-02T01:46:54.064Z,13.14
2022-08-02T01:49:20.533Z,13.21
2022-08-02T01:51:47.081Z,13.18
2022-08-02T01:54:15.179Z,13.17
2022-08-02T01:56:41.648Z,13.07
2022-08-02T01:59:08.314Z,12.98
2022-08-02T02:01:34.609Z,13.04
2022-08-02T02:04:00.908Z,12.96
2022-08-02T02:06:27.153Z,12.86
2022-08-02T02:08:53.378Z,12.78
2022-08-02T02:12:08.646Z,12.71
2022-08-02T02:14:06.209Z,12.86
2022-08-02T02:16:32.454Z,12.74
2022-08-02T02:18:59.851Z,12.34
2022-08-02T02:21:26.084Z,12.60
2022-08-02T02:23:52.313Z,12.74
2022-08-02T02:26:20.896Z,12.67
2022-08-02T02:28:58.073Z,12.68
2022-08-02T02:31:24.322Z,12.63
2022-08-02T02:33:52.669Z,12.67
2022-08-02T02:36:18.920Z,12.73
2022-08-02T02:38:45.149Z,12.70
2022-08-02T02:41:11.398Z,12.69
2022-08-02T02:43:37.638Z,12.75
2022-08-02T02:46:04.057Z,12.57
2022-08-02T02:48:30.281Z,12.56
2022-08-02T02:50:56.528Z,12.51
2022-08-02T02:53:22.779Z,12.08
2022-08-02T02:56:01.725Z,12.13
2022-08-02T02:58:29.176Z,12.21
2022-08-02T03:00:55.514Z,12.26
2022-08-02T03:03:21.793Z,12.42
2022-08-02T03:05:49.121Z,12.48
2022-08-02T03:08:15.368Z,12.44
2022-08-02T03:10:42.450Z,12.35
2022-08-02T03:13:08.701Z,12.35
2022-08-02T03:15:36.896Z,12.41
2022-08-02T03:18:03.136Z,12.34
2022-08-02T03:20:29.373Z,12.25
2022-08-02T03:22:55.621Z,12.13
2022-08-02T03:25:21.844Z,12.21
2022-08-02T03:27:48.094Z,12.19
2022-08-02T03:30:14.566Z,12.32
2022-08-02T03:32:41.456Z,12.38
2022-08-02T03:35:07.926Z,12.39
2022-08-02T03:37:34.173Z,12.46
2022-08-02T03:40:00.402Z,12.52
2022-08-02T03:42:26.886Z,12.38
2022-08-02T03:44:53.384Z,12.42
2022-08-02T03:47:19.622Z,12.31
2022-08-02T03:49:45.853Z,12.19
2022-08-02T03:52:12.644Z,12.30
2022-08-02T03:54:45.473Z,12.41
2022-08-02T03:57:12.281Z,12.49
2022-08-02T03:59:41.881Z,12.52
2022-08-02T04:02:08.322Z,12.43
2022-08-02T04:04:34.847Z,11.99
2022-08-02T04:07:01.086Z,12.25
2022-08-02T04:09:27.329Z,12.38
2022-08-02T04:11:53.574Z,12.42
2022-08-02T04:14:19.830Z,12.43
2022-08-02T04:16:52.886Z,12.43
2022-08-02T04:19:19.841Z,12.50
2022-08-02T04:21:51.865Z,12.54
2022-08-02T04:24:19.502Z,12.56
2022-08-02T04:26:48.003Z,12.43
2022-08-02T04:29:15.928Z,12.52
2022-08-02T04:31:42.156Z,12.63
2022-08-02T04:34:08.405Z,12.77
2022-08-02T04:36:35.497Z,12.70
2022-08-02T04:39:01.849Z,12.56
2022-08-02T04:41:40.707Z,12.26
2022-08-02T04:44:10.057Z,12.55
2022-08-02T04:46:36.429Z,12.44
2022-08-02T04:49:02.746Z,12.14
2022-08-02T04:51:38.302Z,12.11
2022-08-02T04:54:09.227Z,12.20
2022-08-02T04:56:36.405Z,12.39
2022-08-02T04:59:02.651Z,12.60
2022-08-02T05:01:29.169Z,12.84
2022-08-02T05:03:55.414Z,13.05
2022-08-02T05:06:21.645Z,13.19
2022-08-02T05:08:52.314Z,13.28
2022-08-02T05:11:19.614Z,13.37
2022-08-02T05:13:58.888Z,13.35
2022-08-02T05:16:31.064Z,13.40
2022-08-02T05:18:58.189Z,13.48
2022-08-02T05:21:24.439Z,13.54
2022-08-02T05:23:50.694Z,13.66
2022-08-02T05:26:16.932Z,13.74
2022-08-02T05:28:43.171Z,13.76
2022-08-02T05:31:13.173Z,13.75
2022-08-02T05:33:39.715Z,13.77
2022-08-02T05:36:06.126Z,13.72
2022-08-02T05:38:32.366Z,13.73
2022-08-02T05:41:03.123Z,13.93
2022-08-02T05:43:29.768Z,14.11
2022-08-02T05:45:56.022Z,14.26
2022-08-02T05:48:23.731Z,14.57
2022-08-02T05:50:54.190Z,15.54
2022-08-02T05:53:36.382Z,16.87
2022-08-02T05:56:08.621Z,16.95
2022-08-02T05:58:36.337Z,18.09
2022-08-02T06:01:02.870Z,18.91
2022-08-02T06:03:32.646Z,19.71
2022-08-02T06:05:59.339Z,20.23
2022-08-02T06:08:28.557Z,20.55
2022-08-02T06:10:55.172Z,20.56
2022-08-02T06:13:21.406Z,21.11
2022-08-02T06:15:53.596Z,21.26
2022-08-02T06:18:20.050Z,21.75
2022-08-02T06:20:55.728Z,21.20
2022-08-02T06:23:21.964Z,21.56
2022-08-02T06:25:51.680Z,21.56
2022-08-02T06:28:18.080Z,21.65
2022-08-02T06:30:44.345Z,21.52
2022-08-02T06:33:10.599Z,20.20
2022-08-02T06:35:43.505Z,19.78
2022-08-02T06:38:09.744Z,19.24
2022-08-02T06:40:36.344Z,19.10
2022-08-02T06:43:12.463Z,19.25
2022-08-02T06:45:38.849Z,19.23
2022-08-02T06:48:05.540Z,18.60
2022-08-02T06:50:31.854Z,18.91
2022-08-02T06:52:58.110Z,18.64
2022-08-02T06:55:24.359Z,18.70
2022-08-02T06:57:50.608Z,18.71
2022-08-02T07:00:20.130Z,18.63
2022-08-02T07:02:46.406Z,18.40
2022-08-02T07:05:13.258Z,18.16
2022-08-02T07:07:39.506Z,18.20
2022-08-02T07:10:05.828Z,18.17
2022-08-02T07:12:32.697Z,18.32
2022-08-02T07:15:03.686Z,18.30
2022-08-02T07:17:29.996Z,18.49
2022-08-02T07:19:56.486Z,19.18
2022-08-02T07:22:22.734Z,19.45
2022-08-02T07:24:49.194Z,19.10
2022-08-02T07:27:15.467Z,19.26
2022-08-02T07:29:45.216Z,19.20
2022-08-02T07:32:16.926Z,19.54
2022-08-02T07:34:50.252Z,20.36
2022-08-02T07:37:25.612Z,19.33
2022-08-02T07:40:03.194Z,20.08
2022-08-02T07:42:32.681Z,21.38
2022-08-02T07:44:58.920Z,20.70
2022-08-02T07:47:25.165Z,20.76
2022-08-02T07:49:51.397Z,21.55
2022-08-02T07:52:17.635Z,22.01
2022-08-02T07:54:43.876Z,21.44
2022-08-02T07:57:10.109Z,21.15
2022-08-02T07:59:36.355Z,20.99
2022-08-02T08:02:02.696Z,22.20
2022-08-02T08:04:28.990Z,21.76
2022-08-02T08:06:55.228Z,21.07
2022-08-02T08:09:21.492Z,20.67
2022-08-02T08:11:47.726Z,20.50
2022-08-02T08:14:16.854Z,21.56
2022-08-02T08:16:43.375Z,21.30
2022-08-02T08:19:09.625Z,21.56
2022-08-02T08:21:35.857Z,21.97
2022-08-02T08:24:02.102Z,21.07
2022-08-02T08:26:28.338Z,21.70
2022-08-02T08:28:54.592Z,22.56
2022-08-02T08:31:20.844Z,22.58
2022-08-02T08:33:47.094Z,21.63
2022-08-02T08:36:13.341Z,22.16
2022-08-02T08:38:39.610Z,22.87
2022-08-02T08:41:05.842Z,21.86
2022-08-02T08:43:34.631Z,21.05
2022-08-02T08:46:00.870Z,21.53
2022-08-02T08:48:31.037Z,22.48
2022-08-02T08:51:01.149Z,22.72
2022-08-02T08:53:36.857Z,21.73
2022-08-02T08:56:03.384Z,22.56
2022-08-02T08:58:29.628Z,22.88
2022-08-02T09:00:55.934Z,22.80
2022-08-02T09:03:22.427Z,23.27
2022-08-02T09:05:48.660Z,23.22
2022-08-02T09:08:16.956Z,23.84
2022-08-02T09:10:44.305Z,23.42
2022-08-02T09:13:38.625Z,23.00
2022-08-02T09:15:56.958Z,22.19
2022-08-02T09:18:33.100Z,21.92
2022-08-02T09:21:00.189Z,21.88
2022-08-02T09:23:57.048Z,22.70
2022-08-02T09:26:23.358Z,23.04
2022-08-02T09:28:50.337Z,23.02
2022-08-02T09:31:20.351Z,22.65
2022-08-02T09:33:50.518Z,23.56
2022-08-02T09:36:16.748Z,23.35
2022-08-02T09:38:53.222Z,23.19
2022-08-02T09:41:20.283Z,23.69
2022-08-02T09:44:03.457Z,23.77
2022-08-02T09:46:32.387Z,23.36
2022-08-02T09:49:04.591Z,23.98
2022-08-02T09:51:34.491Z,23.70
2022-08-02T09:54:08.482Z,24.05
2022-08-02T09:56:46.060Z,24.30
2022-08-02T09:59:12.598Z,24.19
2022-08-02T10:01:38.941Z,23.83
2022-08-02T10:04:06.287Z,23.70
2022-08-02T10:06:32.782Z,24.43
2022-08-02T10:08:59.010Z,24.45
2022-08-02T10:11:26.082Z,24.44
2022-08-02T10:13:52.317Z,24.68
2022-08-02T10:16:18.904Z,24.39
2022-08-02T10:18:45.145Z,23.50
2022-08-02T10:21:15.500Z,23.57
2022-08-02T10:23:42.606Z,24.54
2022-08-02T10:26:08.866Z,24.17
2022-08-02T10:28:35.107Z,24.46
2022-08-02T10:31:01.469Z,24.06
2022-08-02T10:33:31.006Z,24.65
2022-08-02T10:36:06.682Z,24.70
2022-08-02T10:38:33.662Z,24.88
2022-08-02T10:40:59.914Z,25.02
2022-08-02T10:43:32.128Z,23.95
2022-08-02T10:46:17.346Z,24.12
2022-08-02T10:49:01.427Z,24.44
2022-08-02T10:51:47.676Z,24.33
2022-08-02T10:54:17.621Z,24.64
2022-08-02T10:56:47.432Z,24.55
2022-08-02T10:59:23.204Z,24.56
2022-08-02T11:01:49.448Z,24.77
2022-08-02T11:04:15.685Z,25.03
2022-08-02T11:07:00.460Z,24.53
2022-08-02T11:09:32.803Z,24.02
2022-08-02T11:12:00.284Z,24.08
2022-08-02T11:14:26.516Z,23.95
2022-08-02T11:16:55.740Z,24.06
2022-08-02T11:19:22.301Z,24.83
2022-08-02T11:22:07.021Z,25.03
2022-08-02T11:24:33.681Z,25.03
2022-08-02T11:27:03.601Z,24.99
2022-08-02T11:29:33.632Z,24.94
2022-08-02T11:32:05.087Z,24.89
2022-08-02T11:34:37.382Z,24.65
2022-08-02T11:37:04.186Z,25.17
2022-08-02T11:39:30.422Z,25.27
2022-08-02T11:41:57.933Z,24.94
2022-08-02T11:44:25.393Z,24.51
2022-08-02T11:46:55.452Z,24.54
2022-08-02T11:49:21.756Z,24.99
2022-08-02T11:52:00.956Z,25.21
2022-08-02T11:54:35.247Z,24.86
2022-08-02T11:57:20.179Z,24.74
2022-08-02T11:59:50.604Z,24.65
2022-08-02T12:02:16.922Z,24.64
2022-08-02T12:04:49.830Z,24.58
2022-08-02T12:07:16.078Z,24.54
2022-08-02T12:09:42.944Z,24.84
2022-08-02T12:12:09.312Z,25.10
2022-08-02T12:14:41.178Z,25.23
2022-08-02T12:17:07.431Z,25.40
2022-08-02T12:19:33.799Z,25.39
2022-08-02T12:22:14.077Z,25.32
2022-08-02T12:24:41.060Z,25.58
2022-08-02T12:27:07.343Z,25.60
2022-08-02T12:29:58.511Z,25.00
2022-08-02T12:32:23.913Z,24.47
2022-08-02T12:35:00.326Z,25.23
2022-08-02T12:37:26.570Z,25.32
2022-08-02T12:39:52.826Z,25.03
2022-08-02T12:42:19.071Z,25.61
2022-08-02T12:44:55.128Z,25.44
2022-08-02T12:47:21.731Z,25.28
2022-08-02T12:50:08.107Z,25.42
2022-08-02T12:52:34.382Z,25.64
2022-08-02T12:55:00.639Z,25.27
2022-08-02T12:57:26.891Z,24.93
2022-08-02T12:59:53.339Z,25.17
2022-08-02T13:02:20.379Z,25.18
2022-08-02T13:04:49.700Z,25.19
2022-08-02T13:07:17.060Z,25.41
2022-08-02T13:09:43.315Z,25.27
2022-08-02T13:12:09.640Z,25.43
2022-08-02T13:14:41.819Z,25.51
2022-08-02T13:17:08.343Z,25.34
2022-08-02T13:19:35.784Z,24.85
2022-08-02T13:22:03.940Z,24.92
2022-08-02T13:24:39.875Z,24.82
2022-08-02T13:27:16.932Z,24.67
2022-08-02T13:29:43.181Z,24.77
2022-08-02T13:32:09.700Z,24.80
2022-08-02T13:34:36.179Z,25.01
2022-08-02T13:37:02.613Z,25.07
2022-08-02T13:39:28.849Z,25.59
2022-08-02T13:41:55.084Z,25.75
2022-08-02T13:44:23.539Z,25.54
2022-08-02T13:47:05.182Z,24.95
2022-08-02T13:49:50.506Z,25.07
2022-08-02T13:52:20.014Z,25.35
2022-08-02T13:54:46.301Z,25.13
2022-08-02T13:57:12.565Z,25.21
2022-08-02T13:59:57.316Z,25.47
2022-08-02T14:02:25.222Z,25.80
2022-08-02T14:04:51.619Z,25.83
2022-08-02T14:07:22.033Z,25.65
2022-08-02T14:09:48.302Z,25.72
2022-08-02T14:12:19.281Z,25.64
2022-08-02T14:14:47.413Z,25.75
2022-08-02T14:17:13.654Z,25.92
2022-08-02T14:19:40.225Z,25.92
2022-08-02T14:22:12.527Z,25.95
2022-08-02T14:24:39.294Z,25.83
2022-08-02T14:27:05.531Z,25.46
2022-08-02T14:29:31.805Z,25.12
2022-08-02T14:32:00.680Z,25.12
2022-08-02T14:34:27.555Z,25.30
2022-08-02T14:36:54.309Z,25.44
2022-08-02T14:39:24.007Z,25.47
2022-08-02T14:44:30.645Z,25.41
2022-08-02T14:46:57.025Z,25.17
2022-08-02T14:49:32.936Z,25.32
2022-08-02T14:52:03.990Z,25.41
2022-08-02T14:54:31.168Z,25.23
2022-08-02T14:57:09.280Z,24.86
2022-08-02T14:59:35.676Z,24.97
2022-08-02T15:02:09.580Z,24.90
2022-08-02T15:04:43.260Z,24.69
2022-08-02T15:07:12.827Z,24.58
2022-08-02T15:09:39.746Z,24.63
2022-08-02T15:12:06.574Z,24.76
2022-08-02T15:14:33.040Z,24.74
2022-08-02T15:16:59.381Z,24.75
2022-08-02T15:19:37.734Z,24.57
2022-08-02T15:22:15.798Z,24.51
2022-08-02T15:24:42.660Z,24.34
2022-08-02T15:27:09.146Z,24.33
2022-08-02T15:29:35.406Z,24.38
2022-08-02T15:32:03.255Z,24.39
2022-08-02T15:34:32.520Z,24.48
2022-08-02T15:36:58.908Z,24.42
2022-08-02T15:39:26.305Z,24.40
2022-08-02T15:41:53.966Z,24.30
2022-08-02T15:44:20.349Z,24.24
2022-08-02T15:46:47.738Z,24.23
2022-08-02T15:49:14.075Z,24.16
2022-08-02T15:51:40.472Z,24.23
2022-08-02T15:54:06.805Z,24.27
2022-08-02T15:56:33.087Z,24.36
2022-08-02T15:58:59.402Z,24.24
2022-08-02T16:01:32.034Z,24.29
2022-08-02T16:04:05.042Z,24.28
2022-08-02T16:06:31.294Z,24.11
2022-08-02T16:08:57.563Z,24.18
2022-08-02T16:11:23.816Z,24.04
2022-08-02T16:13:53.098Z,23.93
2022-08-02T16:16:20.910Z,23.79
2022-08-02T16:18:47.194Z,23.92
2022-08-02T16:21:13.439Z,24.06
2022-08-02T16:24:01.664Z,24.03
2022-08-02T16:26:25.971Z,24.07
2022-08-02T16:28:52.512Z,24.08
2022-08-02T16:31:18.761Z,24.00
2022-08-02T16:33:45.005Z,23.81
2022-08-02T16:36:11.581Z,23.74
2022-08-02T16:38:37.957Z,23.56
2022-08-02T16:41:04.251Z,23.70
2022-08-02T16:43:30.693Z,23.68
2022-08-02T16:45:57.048Z,23.67
2022-08-02T16:48:23.305Z,23.50
2022-08-02T16:50:50.445Z,23.33
2022-08-02T16:53:30.546Z,23.44
2022-08-02T16:56:03.912Z,23.50
2022-08-02T16:58:30.167Z,23.49
2022-08-02T17:00:56.444Z,23.47
2022-08-02T17:03:24.098Z,23.70
2022-08-02T17:05:59.903Z,23.86
2022-08-02T17:08:31.488Z,24.02
2022-08-02T17:10:58.473Z,24.08
2022-08-02T17:13:29.721Z,23.96
2022-08-02T17:16:17.157Z,23.88
2022-08-02T17:18:43.053Z,23.99
2022-08-02T17:21:13.321Z,23.90
2022-08-02T17:24:05.828Z,23.91
2022-08-02T17:26:25.818Z,23.95
2022-08-02T17:29:15.097Z,23.93
2022-08-02T17:31:44.403Z,23.61
2022-08-02T17:34:27.324Z,23.37
2022-08-02T17:36:53.575Z,23.33
2022-08-02T17:39:19.825Z,23.14
2022-08-02T17:41:49.017Z,23.04
2022-08-02T17:44:15.865Z,22.93
2022-08-02T17:47:02.090Z,22.80
2022-08-02T17:49:28.547Z,22.73
2022-08-02T17:52:47.672Z,22.68
2022-08-02T17:54:42.357Z,22.59
2022-08-02T17:57:09.980Z,22.43
2022-08-02T17:59:41.883Z,22.40
2022-08-02T18:02:08.652Z,22.38
2022-08-02T18:04:34.895Z,22.38
2022-08-02T18:07:03.957Z,22.33
2022-08-02T18:09:31.019Z,22.35
2022-08-02T18:11:57.948Z,22.34
2022-08-02T18:14:24.405Z,22.29
2022-08-02T18:16:52.726Z,21.98
2022-08-02T18:19:18.964Z,21.96
2022-08-02T18:21:45.606Z,21.97
2022-08-02T18:24:12.005Z,22.04
2022-08-02T18:26:38.359Z,22.10
2022-08-02T18:29:05.049Z,21.93
2022-08-02T18:31:39.330Z,21.72
2022-08-02T18:34:06.002Z,21.65
2022-08-02T18:36:32.246Z,21.56
2022-08-02T18:38:59.131Z,21.57
2022-08-02T18:41:25.407Z,21.67
2022-08-02T18:43:54.909Z,21.75
2022-08-02T18:46:21.237Z,21.71
2022-08-02T18:48:47.820Z,21.74
2022-08-02T18:51:14.561Z,21.75
2022-08-02T18:53:42.144Z,21.67
2022-08-02T18:56:09.144Z,21.58
2022-08-02T18:58:35.390Z,21.60
2022-08-02T19:01:05.049Z,21.57
2022-08-02T19:03:31.656Z,21.56
2022-08-02T19:06:03.514Z,21.42
2022-08-02T19:08:33.054Z,21.28
2022-08-02T19:11:02.549Z,21.31
2022-08-02T19:13:29.170Z,21.26
2022-08-02T19:15:55.882Z,21.25
2022-08-02T19:18:26.949Z,21.19
2022-08-02T19:21:01.278Z,21.16
2022-08-02T19:23:31.664Z,21.15
2022-08-02T19:25:57.900Z,20.80
2022-08-02T19:28:26.508Z,20.69
2022-08-02T19:30:54.233Z,20.89
2022-08-02T19:33:54.505Z,20.97
2022-08-02T19:36:06.838Z,20.98
2022-08-02T19:38:33.071Z,20.96
2022-08-02T19:40:59.326Z,20.88
2022-08-02T19:44:27.296Z,20.94
2022-08-02T19:46:15.858Z,20.61
2022-08-02T19:48:42.417Z,20.54
2022-08-02T19:51:10.398Z,20.72
2022-08-02T19:53:46.923Z,20.76
2022-08-02T19:56:20.132Z,20.57
2022-08-02T19:58:47.789Z,20.65
2022-08-02T20:01:14.967Z,20.69
2022-08-02T20:03:51.669Z,20.63
2022-08-02T20:06:19.231Z,20.58
2022-08-02T20:08:53.320Z,20.38
2022-08-02T20:11:24.713Z,19.99
2022-08-02T20:13:51.579Z,19.76
2022-08-02T20:16:20.735Z,19.97
2022-08-02T20:18:54.386Z,19.97
2022-08-02T20:21:35.595Z,20.15
2022-08-02T20:24:03.862Z,20.29
2022-08-02T20:26:30.120Z,20.33
2022-08-02T20:28:57.830Z,20.42
2022-08-02T20:31:28.834Z,20.42
2022-08-02T20:33:56.744Z,20.49
2022-08-02T20:36:23.170Z,20.56
2022-08-02T20:38:49.404Z,20.57
2022-08-02T20:41:21.580Z,20.36
2022-08-02T20:43:48.334Z,20.24
2022-08-02T20:46:14.982Z,20.35
2022-08-02T20:48:41.295Z,20.41
2022-08-02T20:51:11.998Z,20.51
2022-08-02T20:53:54.582Z,20.53
2022-08-02T20:56:21.571Z,20.42
2022-08-02T20:58:47.810Z,20.45
2022-08-02T21:01:18.731Z,20.45
2022-08-02T21:03:47.612Z,20.17
2022-08-02T21:06:24.818Z,19.99
2022-08-02T21:08:54.222Z,20.12
2022-08-02T21:11:20.469Z,19.92
2022-08-02T21:14:08.815Z,19.88
2022-08-02T21:16:35.784Z,20.00
2022-08-02T21:19:02.153Z,20.00
2022-08-02T21:21:28.633Z,20.11
2022-08-02T21:23:56.135Z,19.93
2022-08-02T21:29:08.622Z,20.06
2022-08-02T21:31:36.159Z,20.17
2022-08-02T21:34:03.438Z,20.23
2022-08-02T21:36:48.416Z,20.28
2022-08-02T21:39:14.670Z,20.32
2022-08-02T21:44:27.310Z,20.27
2022-08-02T21:46:55.603Z,20.26
2022-08-02T21:49:40.650Z,20.27
2022-08-02T21:52:08.716Z,20.30
2022-08-02T21:54:35.059Z,20.21
2022-08-02T21:57:01.303Z,20.21
2022-08-02T21:59:30.354Z,20.17
2022-08-02T22:01:59.158Z,20.17
2022-08-02T22:04:25.938Z,20.08
2022-08-02T22:06:52.470Z,20.14
2022-08-02T22:09:44.013Z,20.24
2022-08-02T22:12:09.774Z,20.30
2022-08-02T22:14:37.008Z,20.33
2022-08-02T22:17:08.764Z,20.35
2022-08-02T22:19:35.448Z,20.34
2022-08-02T22:22:01.688Z,20.41
2022-08-02T22:24:30.010Z,20.36
2022-08-02T22:26:56.707Z,20.38
2022-08-02T22:29:22.965Z,20.33
2022-08-02T22:31:49.193Z,20.34
2022-08-02T22:34:37.035Z,20.34
2022-08-02T22:37:05.681Z,20.33
2022-08-02T22:39:32.273Z,20.36
2022-08-02T22:42:05.117Z,20.34
2022-08-02T22:44:33.874Z,20.32
2022-08-02T22:47:00.288Z,20.30
2022-08-02T22:49:38.797Z,20.30
2022-08-02T22:52:20.178Z,20.30
2022-08-02T22:54:47.366Z,20.30
2022-08-02T22:57:13.596Z,20.30
2022-08-02T22:59:03.343Z,20.30
2022-08-02T22:59:10.714Z,19.99
2022-08-02T22:59:40.799Z,20.32
2022-08-02T23:02:07.680Z,20.34
2022-08-02T23:04:33.938Z,20.35
2022-08-02T23:07:00.192Z,20.38
2022-08-02T23:09:26.449Z,20.39
2022-08-02T23:11:52.702Z,20.33
2022-08-02T23:14:18.963Z,20.34
2022-08-02T23:16:45.201Z,20.30
2022-08-02T23:19:11.472Z,20.26
2022-08-02T23:22:00.950Z,20.25
2022-08-02T23:24:23.955Z,20.25
2022-08-02T23:26:50.202Z,20.29
2022-08-02T23:29:16.475Z,20.30
2022-08-02T23:31:42.723Z,20.27
2022-08-02T23:34:11.233Z,20.27
2022-08-02T23:36:37.470Z,20.25
2022-08-02T23:39:03.730Z,20.21
2022-08-02T23:41:29.980Z,20.22
2022-08-02T23:44:12.509Z,20.20
2022-08-02T23:46:40.623Z,20.16
2022-08-02T23:49:06.912Z,20.08
2022-08-02T23:51:33.189Z,20.14
2022-08-02T23:53:59.447Z,20.15
2022-08-02T23:56:25.689Z,20.23
2022-08-02T23:58:51.940Z,20.32
